Latest Weather Observations for Yunta

IDS60801

Issued at 10:51 am CST Tuesday 16 August 2022 (issued every 10 minutes, with the page automatically refreshed every 10 minutes)

About weather observations | Map of weather stations | Latest weather observations for SA | Other Formats
Station Details ID: 020062 Name: YUNTA AIRSTRIP Lat: -32.57 Lon: 139.56 Height: 300.0 m
Data from the previous 72 hours. | See also: Recent months at Yunta
Date/Time
CST
Temp
°C
App
Temp
°C
Dew
Point
°C
Rel
Hum
%
Delta-T
°C
Wind Press
QNH
hPa
Press
MSL
hPa
Rain since
9am
mm
Dir  Spd
km/h
Gust
km/h
Spd
kts
Gust
kts
16/10:30am 13.2 6.9 3.8 53 4.3 S 26 35 14 19 1019.8 1020.0 0.0
16/10:00am 12.5 6.2 4.0 56 3.9 SSW 26 33 14 18 1019.7 1019.9 0.0
16/09:30am 11.7 5.9 4.2 60 3.4 SSW 24 32 13 17 1019.6 1019.8 0.0
16/09:00am 10.6 5.2 4.5 66 2.8 SSW 22 30 12 16 1019.4 1019.5 0.0
16/08:30am 9.4 5.4 5.0 74 2.0 WSW 15 20 8 11 1019.3 1019.4 0.0
16/08:00am 7.2 5.3 4.9 85 1.0 WSW 4 9 2 5 1019.1 1019.2 0.0
16/07:30am 5.7 1.9 3.7 87 0.9 WSW 13 19 7 10 1018.8 1019.0 0.0
16/07:00am 4.7 0.7 3.0 89 0.7 WSW 13 15 7 8 1018.2 1018.4 0.0
16/06:30am 4.7 0.4 3.0 89 0.7 WSW 15 17 8 9 1017.7 1017.9 0.0
16/06:00am 4.8 1.2 3.0 88 0.7 WSW 11 15 6 8 1017.2 1017.4 0.0
16/05:30am 5.4 1.9 3.4 87 0.8 SW 11 19 6 10 1016.9 1017.1 0.0
16/05:00am 5.5 2.0 3.7 88 0.8 SW 11 13 6 7 1016.2 1016.3 0.0
16/04:30am 4.5 1.2 2.7 88 0.7 SW 9 11 5 6 1015.6 1015.7 0.0
16/04:00am 4.4 1.4 2.3 86 0.9 SW 7 7 4 4 1015.2 1015.4 0.0
16/03:30am 5.7 3.2 3.5 86 0.9 SW 6 7 3 4 1015.1 1015.3 0.0
16/03:00am 6.5 3.5 4.0 84 1.1 SW 9 11 5 6 1015.2 1015.4 0.0
16/02:30am 7.6 4.3 4.7 82 1.3 SW 11 17 6 9 1015.3 1015.5 0.0
16/02:00am 8.6 5.1 5.4 80 1.5 SW 13 15 7 8 1015.2 1015.4 0.0
16/01:30am 8.7 4.8 5.4 80 1.5 SW 15 20 8 11 1015.3 1015.5 0.0
16/01:00am 7.2 4.9 5.5 89 0.8 SSW 7 11 4 6 1015.1 1015.3 0.0
16/12:30am 5.1 3.1 2.5 83 1.1 SSW 2 4 1 2 1014.8 1015.0 0.0
16/12:00am 6.9 4.4 3.9 81 1.3 SSW 6 6 3 3 1014.7 1014.9 0.0
 
Date/Time
CST
Temp
°C
App
Temp
°C
Dew
Point
°C
Rel
Hum
%
Delta-T
°C
Wind Press
QNH
hPa
Press
MSL
hPa
Rain since
9am
mm
Dir  Spd
km/h
Gust
km/h
Spd
kts
Gust
kts
15/11:30pm 6.9 4.8 3.9 81 1.3 SSW 4 6 2 3 1014.4 1014.6 0.0
15/11:00pm 7.6 5.0 4.0 78 1.6 SSW 7 9 4 5 1014.5 1014.7 0.0
15/10:30pm 8.7 5.7 4.3 74 2.0 SSW 9 11 5 6 1014.1 1014.3 0.0
15/10:00pm 9.5 5.8 4.5 71 2.3 SSW 13 19 7 10 1013.8 1013.9 0.0
15/09:30pm 10.2 5.4 4.4 67 2.6 SSW 19 30 10 16 1013.6 1013.7 0.0
15/09:00pm 10.9 6.1 4.6 65 2.9 SSW 19 24 10 13 1013.0 1013.1 0.0
15/08:30pm 11.6 6.7 5.0 64 3.1 SSW 20 26 11 14 1012.5 1012.6 0.0
15/08:00pm 11.8 6.2 5.4 65 3.0 SSW 24 35 13 19 1011.8 1012.0 0.0
15/07:30pm 12.1 7.7 6.6 69 2.7 SSW 19 28 10 15 1011.1 1011.3 0.0
15/07:07pm 12.9 9.0 5.3 60 3.6 WSW 15 35 8 19 1010.5 1010.6 0.0
15/07:00pm 13.1 10.1 6.2 63 3.3 W 11 15 6 8 1010.3 1010.4 0.0
15/06:30pm 13.1 10.3 7.1 67 3.0 W 11 15 6 8 1009.9 1010.0 0.0
15/06:00pm 13.3 9.8 7.3 67 3.0 W 15 20 8 11 1009.6 1009.7 0.0
15/05:30pm 13.6 9.3 7.2 65 3.2 W 19 26 10 14 1009.2 1009.3 0.0
15/05:00pm 13.9 9.0 6.7 62 3.5 W 22 30 12 16 1008.9 1009.0 0.0
15/04:30pm 15.0 9.8 5.5 53 4.6 W 22 35 12 19 1008.6 1008.7 0.0
15/04:00pm 15.8 10.1 5.1 49 5.2 WSW 24 32 13 17 1008.5 1008.6 0.0
15/03:30pm 16.4 11.2 5.4 48 5.4 WSW 22 30 12 16 1008.3 1008.5 0.0
15/03:00pm 16.1 11.0 6.0 51 5.0 W 22 39 12 21 1008.6 1008.7 0.0
15/02:30pm 16.0 9.9 5.0 48 5.3 WSW 26 35 14 19 1008.7 1008.8 0.0
15/02:00pm 15.7 9.7 3.2 43 5.8 W 24 32 13 17 1008.8 1008.9 0.0
15/01:30pm 15.4 9.6 2.2 41 6.0 W 22 30 12 16 1008.8 1008.9 0.0
15/01:00pm 16.2 11.3 2.2 39 6.4 W 17 24 9 13 1008.9 1009.0 0.0
15/12:30pm 15.4 10.9 2.2 41 6.0 WNW 15 24 8 13 1009.4 1009.5 0.0
15/12:00pm 15.2 9.8 2.4 42 5.8 WNW 20 26 11 14 1009.8 1009.9 0.0
15/11:30am 15.0 9.1 1.9 41 5.9 WNW 22 28 12 15 1010.2 1010.3 0.0
15/11:00am 14.9 9.3 1.4 40 6.0 NW 20 26 11 14 1010.5 1010.6 0.0
15/10:30am 15.3 9.4 1.8 40 6.1 NW 22 32 12 17 1010.6 1010.7 0.0
15/10:00am 14.4 9.0 2.3 44 5.4 NNW 20 28 11 15 1010.7 1010.8 0.0
15/09:30am 12.9 8.1 2.7 50 4.6 NW 17 22 9 12 1011.1 1011.3 0.0
15/09:00am 11.1 7.1 2.7 56 3.7 W 13 15 7 8 1011.3 1011.5 0.2
15/08:30am 10.2 7.0 2.8 60 3.2 W 9 13 5 7 1011.4 1011.6 0.2
15/08:00am 9.3 6.1 3.1 65 2.7 W 9 15 5 8 1011.4 1011.6 0.2
15/07:30am 9.1 5.8 2.7 64 2.8 W 9 13 5 7 1011.0 1011.2 0.2
15/07:00am 8.3 5.5 2.1 65 2.6 W 6 9 3 5 1011.2 1011.4 0.2
15/06:30am 7.4 3.3 2.3 70 2.2 W 13 15 7 8 1011.2 1011.4 0.2
15/06:00am 7.2 3.5 2.3 71 2.1 W 11 13 6 7 1011.3 1011.5 0.2
15/05:30am 7.1 3.8 2.4 72 2.0 W 9 9 5 5 1011.4 1011.6 0.2
15/05:00am 6.7 3.4 2.2 73 1.9 W 9 11 5 6 1011.4 1011.6 0.2
15/04:30am 7.3 3.7 2.8 73 1.9 W 11 13 6 7 1011.2 1011.4 0.2
15/04:00am 7.3 3.3 2.6 72 2.0 W 13 17 7 9 1011.3 1011.5 0.2
15/03:30am 8.3 4.3 3.0 69 2.3 W 13 15 7 8 1011.7 1011.9 0.2
15/03:00am 8.8 5.2 3.2 68 2.4 W 11 15 6 8 1012.0 1012.1 0.2
15/02:30am 10.2 7.0 3.3 62 3.1 W 9 11 5 6 1012.1 1012.2 0.2
15/02:00am 10.4 7.2 3.2 61 3.2 W 9 11 5 6 1012.7 1012.8 0.2
15/01:30am 10.8 7.7 3.4 60 3.3 W 9 13 5 7 1013.0 1013.1 0.2
15/01:00am 10.8 6.5 3.4 60 3.3 W 15 20 8 11 1013.1 1013.2 0.2
15/12:30am 10.5 6.7 4.0 64 2.9 W 13 17 7 9 1013.1 1013.2 0.2
15/12:00am 8.7 5.6 3.5 70 2.3 W 9 11 5 6 1013.5 1013.6 0.2
 
Date/Time
CST
Temp
°C
App
Temp
°C
Dew
Point
°C
Rel
Hum
%
Delta-T
°C
Wind Press
QNH
hPa
Press
MSL
hPa
Rain since
9am
mm
Dir  Spd
km/h
Gust
km/h
Spd
kts
Gust
kts
14/11:30pm 8.4 5.6 3.3 70 2.2 W 7 11 4 6 1013.5 1013.6 0.2
14/11:00pm 9.5 6.0 3.5 66 2.7 W 11 13 6 7 1013.6 1013.7 0.2
14/10:30pm 10.0 7.0 4.0 66 2.7 W 9 9 5 5 1014.1 1014.3 0.2
14/10:00pm 9.9 7.7 3.6 65 2.8 W 4 7 2 4 1014.3 1014.5 0.2
14/09:30pm 10.2 7.1 3.7 64 2.9 W 9 11 5 6 1014.3 1014.5 0.2
14/09:00pm 9.3 5.4 3.5 67 2.6 W 13 13 7 7 1014.3 1014.5 0.2
14/08:30pm 9.0 5.1 3.2 67 2.5 W 13 15 7 8 1014.2 1014.4 0.2
14/08:00pm 9.7 5.8 3.2 64 2.9 W 13 15 7 8 1014.2 1014.4 0.2
14/07:30pm 9.4 5.4 2.9 64 2.8 W 13 15 7 8 1014.0 1014.2 0.2
14/07:00pm 10.1 6.8 2.5 59 3.3 W 9 11 5 6 1013.8 1013.9 0.2
14/06:30pm 12.1 8.5 2.8 53 4.1 W 11 15 6 8 1013.9 1014.1 0.2
14/06:00pm 13.2 8.0 2.4 48 4.8 W 19 24 10 13 1013.7 1013.8 0.2
14/05:30pm 13.4 8.0 2.6 48 4.8 W 20 28 11 15 1013.4 1013.5 0.2
14/05:00pm 13.9 8.7 2.5 46 5.1 W 19 24 10 13 1013.4 1013.5 0.2
14/04:30pm 14.1 8.7 2.7 46 5.2 WSW 20 26 11 14 1013.1 1013.2 0.2
14/04:00pm 14.8 9.6 3.3 46 5.3 W 20 28 11 15 1013.2 1013.3 0.2
14/03:30pm 15.6 9.6 3.4 44 5.7 WSW 24 33 13 18 1013.1 1013.2 0.2
14/03:00pm 14.7 9.1 3.5 47 5.2 W 22 32 12 17 1013.4 1013.5 0.2
14/02:30pm 15.1 8.8 3.9 47 5.2 W 26 35 14 19 1013.7 1013.8 0.2
14/02:00pm 15.6 9.3 4.0 46 5.5 W 26 35 14 19 1014.0 1014.2 0.2
14/01:30pm 14.8 8.7 4.8 51 4.7 W 26 33 14 18 1014.1 1014.3 0.2
14/01:00pm 14.2 8.2 5.3 55 4.3 W 26 33 14 18 1014.4 1014.6 0.2
14/12:30pm 15.0 10.1 5.0 51 4.8 W 20 32 11 17 1014.6 1014.8 0.2
14/12:00pm 14.2 9.4 5.8 57 4.1 WSW 20 30 11 16 1014.8 1015.0 0.2
14/11:30am 13.4 7.8 5.6 59 3.7 W 24 33 13 18 1015.1 1015.3 0.2
14/11:00am 12.9 7.7 5.6 61 3.5 WSW 22 32 12 17 1015.7 1015.8 0.2
14/10:30am 12.4 7.3 6.2 66 3.0 WSW 22 28 12 15 1015.7 1015.8 0.2
14/10:00am 11.6 6.1 6.1 69 2.6 WSW 24 33 13 18 1015.9 1016.0 0.0
14/09:30am 10.5 4.7 6.3 75 2.0 W 26 33 14 18 1015.9 1016.0 0.0
14/09:00am 9.9 5.3 6.6 80 1.6 W 20 26 11 14 1015.9 1016.0 0.0
14/08:30am 9.4 4.8 6.7 83 1.3 W 20 28 11 15 1015.9 1016.0 0.0
14/08:00am 8.3 3.6 6.1 86 1.0 W 20 28 11 15 1015.5 1015.6 0.0
14/07:30am 7.6 2.4 5.6 87 0.9 W 22 30 12 16 1014.9 1015.1 0.0
14/07:00am 6.9 2.2 5.1 88 0.8 W 19 24 10 13 1014.9 1015.1 0.0
14/06:30am 7.3 2.7 5.4 88 0.9 W 19 22 10 12 1014.6 1014.8 0.0
14/06:00am 7.2 2.9 5.3 88 0.9 W 17 24 9 13 1014.4 1014.6 0.0
14/05:30am 7.4 3.2 5.5 88 0.9 W 17 22 9 12 1014.0 1014.2 0.0
14/05:00am 8.0 4.3 6.1 88 0.9 W 15 20 8 11 1014.1 1014.3 0.0
14/04:30am 8.1 4.8 6.2 88 0.9 W 13 19 7 10 1014.2 1014.4 0.0
14/04:00am 7.7 4.6 5.7 87 0.9 W 11 13 6 7 1013.8 1013.9 0.0
14/03:30am 7.5 4.0 5.3 86 1.0 W 13 19 7 10 1013.8 1013.9 0.0
14/03:00am 7.1 3.1 5.1 87 0.9 W 15 17 8 9 1013.6 1013.7 0.0
14/02:30am 7.3 2.6 5.3 87 0.9 W 19 24 10 13 1013.7 1013.8 0.0
14/02:00am 7.5 4.0 5.3 86 1.0 W 13 17 7 9 1014.1 1014.3 0.0
14/01:30am 8.0 4.2 5.8 86 1.0 W 15 22 8 12 1014.1 1014.3 0.0
14/01:00am 7.9 3.3 5.7 86 1.0 W 19 24 10 13 1014.4 1014.6 0.0
14/12:30am 7.8 3.6 5.6 86 1.0 W 17 20 9 11 1014.5 1014.7 0.0
14/12:00am 8.1 3.9 5.9 86 1.0 W 17 20 9 11 1014.7 1014.9 0.0
 
Date/Time
CST
Temp
°C
App
Temp
°C
Dew
Point
°C
Rel
Hum
%
Delta-T
°C
Wind Press
QNH
hPa
Press
MSL
hPa
Rain since
9am
mm
Dir  Spd
km/h
Gust
km/h
Spd
kts
Gust
kts
13/11:30pm 8.3 3.8 6.1 86 1.0 W 19 22 10 12 1014.8 1015.0 0.0
13/11:00pm 8.5 4.4 6.3 86 1.0 W 17 24 9 13 1015.0 1015.2 0.0
13/10:30pm 8.2 4.9 6.2 87 0.9 W 13 19 7 10 1015.2 1015.4 0.0
13/10:00pm 8.3 5.3 6.1 86 1.0 W 11 15 6 8 1015.2 1015.4 0.0
13/09:30pm 8.1 5.8 5.6 84 1.1 W 7 9 4 5 1015.5 1015.6 0.0
13/09:00pm 8.4 5.7 5.7 83 1.2 W 9 11 5 6 1015.3 1015.5 0.0
13/08:30pm 9.2 5.5 6.1 81 1.4 W 15 19 8 10 1015.5 1015.6 0.0
13/08:00pm 9.7 5.2 6.1 78 1.7 W 19 26 10 14 1015.2 1015.4 0.0
13/07:30pm 9.8 6.5 6.2 78 1.7 W 13 17 7 9 1014.9 1015.1 0.0
13/07:00pm 10.4 7.8 6.2 75 2.0 WSW 9 13 5 7 1014.6 1014.8 0.0
13/06:30pm 10.8 6.7 6.0 72 2.3 WSW 17 24 9 13 1014.3 1014.5 0.0
13/06:00pm 11.3 4.5 5.0 65 2.9 W 30 41 16 22 1014.0 1014.2 0.0
13/05:30pm 11.3 5.4 6.0 70 2.5 WSW 26 39 14 21 1013.8 1013.9 0.0
13/05:00pm 12.6 6.5 4.8 59 3.6 WSW 26 35 14 19 1013.7 1013.8 0.0
13/04:30pm 13.6 7.1 4.7 55 4.2 W 28 37 15 20 1013.5 1013.6 0.0
13/04:00pm 13.2 5.9 4.4 55 4.1 WSW 32 44 17 24 1013.3 1013.4 0.0
13/03:30pm 13.6 6.7 4.7 55 4.2 W 30 41 16 22 1013.1 1013.2 0.0
13/03:00pm 13.8 7.0 4.9 55 4.2 W 30 39 16 21 1013.3 1013.4 0.0
13/02:30pm 13.2 5.8 4.9 57 3.9 WSW 33 41 18 22 1013.3 1013.4 0.0
13/02:00pm 13.6 6.7 4.5 54 4.3 W 30 41 16 22 1013.3 1013.4 0.0
13/01:30pm 13.6 7.1 4.7 55 4.2 WSW 28 39 15 21 1013.5 1013.6 0.0
13/01:00pm 13.1 7.1 5.3 59 3.7 W 26 33 14 18 1013.9 1014.1 0.0
13/12:30pm 12.8 7.1 6.8 67 2.9 W 26 33 14 18 1014.2 1014.4 0.0
13/12:00pm 12.1 6.6 5.9 66 3.0 W 24 32 13 17 1014.6 1014.8 0.0
13/11:30am 11.4 5.6 6.1 70 2.5 W 26 33 14 18 1014.9 1015.1 0.0
13/11:00am 10.6 4.4 6.2 74 2.1 W 28 35 15 19 1015.0 1015.2 0.0

Other formats

Comma delimited format used in spreadsheet applications
http://www.bom.gov.au/fwo/IDS60801/IDS60801.94684.axf

JavaScript Object Notation format (JSON) in row-major order
http://www.bom.gov.au/fwo/IDS60801/IDS60801.94684.json

Data quality

Most of these data are generated automatically and are frequently updated. Quality checks on data are not normally performed. It is possible for incorrect values to appear. Refer to information at About Latest Weather Observations and please check the disclaimer before using these data.